sensor_id;sensor_type;location;lat;lon;timestamp;pressure;altitude;pressure_sealevel;temperature;humidity
44926;BME280;30662;51.210;7.656;2023-05-20T00:01:28;151766.22;;;11.88;80.50
44926;BME280;30662;51.210;7.656;2023-05-20T00:03:54;151734.47;;;11.75;81.01
44926;BME280;30662;51.210;7.656;2023-05-20T00:06:21;151721.78;;;11.70;81.55
44926;BME280;30662;51.210;7.656;2023-05-20T00:08:46;151762.38;;;11.86;80.98
44926;BME280;30662;51.210;7.656;2023-05-20T00:11:12;151710.38;;;11.66;81.50
44926;BME280;30662;51.210;7.656;2023-05-20T00:13:38;151745.84;;;11.80;81.64
44926;BME280;30662;51.210;7.656;2023-05-20T00:16:05;151721.78;;;11.70;82.50
44926;BME280;30662;51.210;7.656;2023-05-20T00:18:31;151743.31;;;11.79;81.93
44926;BME280;30662;51.210;7.656;2023-05-20T00:20:57;151735.72;;;11.76;81.43
44926;BME280;30662;51.210;7.656;2023-05-20T00:23:23;151768.72;;;11.89;80.25
44926;BME280;30662;51.210;7.656;2023-05-20T00:25:49;151711.69;;;11.66;81.03
44926;BME280;30662;51.210;7.656;2023-05-20T00:28:15;151654.63;;;11.43;82.42
44926;BME280;30662;51.210;7.656;2023-05-20T00:30:41;151678.72;;;11.53;82.17
44926;BME280;30662;51.210;7.656;2023-05-20T00:33:07;151690.09;;;11.57;83.16
44926;BME280;30662;51.210;7.656;2023-05-20T00:35:33;151716.72;;;11.68;82.19
44926;BME280;30662;51.210;7.656;2023-05-20T00:38:00;151729.41;;;11.73;81.85
44926;BME280;30662;51.210;7.656;2023-05-20T00:40:25;151696.47;;;11.60;82.66
44926;BME280;30662;51.210;7.656;2023-05-20T00:42:51;151691.38;;;11.58;82.88
44926;BME280;30662;51.210;7.656;2023-05-20T00:45:17;151705.31;;;11.64;82.61
44926;BME280;30662;51.210;7.656;2023-05-20T00:47:43;151704.06;;;11.63;81.16
44926;BME280;30662;51.210;7.656;2023-05-20T00:50:10;151676.19;;;11.52;82.17
44926;BME280;30662;51.210;7.656;2023-05-20T00:52:36;151652.09;;;11.42;82.68
44926;BME280;30662;51.210;7.656;2023-05-20T00:55:03;151640.72;;;11.38;82.59
44926;BME280;30662;51.210;7.656;2023-05-20T00:57:29;151629.31;;;11.33;83.31
44926;BME280;30662;51.210;7.656;2023-05-20T00:59:55;151596.38;;;11.20;83.89
44926;BME280;30662;51.210;7.656;2023-05-20T01:02:21;151588.78;;;11.17;84.71
44926;BME280;30662;51.210;7.656;2023-05-20T01:04:48;151593.84;;;11.19;84.39
44926;BME280;30662;51.210;7.656;2023-05-20T01:07:16;151602.69;;;11.22;84.11
44926;BME280;30662;51.210;7.656;2023-05-20T01:09:43;151572.34;;;11.10;85.18
44926;BME280;30662;51.210;7.656;2023-05-20T01:12:26;151557.13;;;11.04;85.93
44926;BME280;30662;51.210;7.656;2023-05-20T01:15:06;151540.66;;;10.97;85.50
44926;BME280;30662;51.210;7.656;2023-05-20T01:17:36;151500.16;;;10.81;87.50
44926;BME280;30662;51.210;7.656;2023-05-20T01:20:04;151502.69;;;10.82;87.67
44926;BME280;30662;51.210;7.656;2023-05-20T01:22:36;151502.69;;;10.82;87.53
44926;BME280;30662;51.210;7.656;2023-05-20T01:25:03;151538.13;;;10.96;86.83
44926;BME280;30662;51.210;7.656;2023-05-20T01:27:30;151520.41;;;10.89;87.75
44926;BME280;30662;51.210;7.656;2023-05-20T01:29:56;151496.38;;;10.80;88.19
44926;BME280;30662;51.210;7.656;2023-05-20T01:32:30;151527.97;;;10.92;87.50
44926;BME280;30662;51.210;7.656;2023-05-20T01:34:58;151517.88;;;10.88;87.69
44926;BME280;30662;51.210;7.656;2023-05-20T01:37:26;151484.94;;;10.75;88.84
44926;BME280;30662;51.210;7.656;2023-05-20T01:39:53;151454.53;;;10.63;89.65
44926;BME280;30662;51.210;7.656;2023-05-20T01:42:21;151515.34;;;10.87;89.34
44926;BME280;30662;51.210;7.656;2023-05-20T01:44:48;151519.13;;;10.89;89.27
44926;BME280;30662;51.210;7.656;2023-05-20T01:47:14;151544.44;;;10.99;89.28
44926;BME280;30662;51.210;7.656;2023-05-20T01:49:40;151567.28;;;11.08;88.54
44926;BME280;30662;51.210;7.656;2023-05-20T01:52:06;151565.97;;;11.08;88.48
44926;BME280;30662;51.210;7.656;2023-05-20T01:54:32;151535.59;;;10.95;89.46
44926;BME280;30662;51.210;7.656;2023-05-20T01:56:58;151520.41;;;10.89;90.07
44926;BME280;30662;51.210;7.656;2023-05-20T01:59:24;151560.91;;;11.05;89.21
44926;BME280;30662;51.210;7.656;2023-05-20T02:01:50;151520.41;;;10.89;90.20
44926;BME280;30662;51.210;7.656;2023-05-20T02:04:16;151495.06;;;10.79;91.57
44926;BME280;30662;51.210;7.656;2023-05-20T02:06:44;151515.34;;;10.87;91.07
44926;BME280;30662;51.210;7.656;2023-05-20T02:09:10;151548.25;;;11.00;90.17
44926;BME280;30662;51.210;7.656;2023-05-20T02:11:36;151538.13;;;10.96;90.50
44926;BME280;30662;51.210;7.656;2023-05-20T02:14:02;151520.41;;;10.89;90.87
44926;BME280;30662;51.210;7.656;2023-05-20T02:16:28;151527.97;;;10.92;91.24
44926;BME280;30662;51.210;7.656;2023-05-20T02:18:54;151530.50;;;10.93;91.07
44926;BME280;30662;51.210;7.656;2023-05-20T02:21:20;151486.22;;;10.75;92.26
44926;BME280;30662;51.210;7.656;2023-05-20T02:23:47;151487.47;;;10.76;91.83
44926;BME280;30662;51.210;7.656;2023-05-20T02:26:13;151482.41;;;10.74;92.24
44926;BME280;30662;51.210;7.656;2023-05-20T02:28:39;151428.00;;;10.52;93.83
44926;BME280;30662;51.210;7.656;2023-05-20T02:31:09;151417.84;;;10.48;94.69
44926;BME280;30662;51.210;7.656;2023-05-20T02:33:35;151436.81;;;10.56;94.93
44926;BME280;30662;51.210;7.656;2023-05-20T02:36:01;151397.59;;;10.40;95.75
44926;BME280;30662;51.210;7.656;2023-05-20T02:38:27;151383.66;;;10.34;96.27
44926;BME280;30662;51.210;7.656;2023-05-20T02:40:54;151397.59;;;10.40;96.40
44926;BME280;30662;51.210;7.656;2023-05-20T02:43:21;151378.59;;;10.32;97.11
44926;BME280;30662;51.210;7.656;2023-05-20T02:45:47;151374.81;;;10.31;97.71
44926;BME280;30662;51.210;7.656;2023-05-20T02:48:13;151364.69;;;10.27;98.02
44926;BME280;30662;51.210;7.656;2023-05-20T02:50:39;151402.66;;;10.42;97.41
44926;BME280;30662;51.210;7.656;2023-05-20T02:53:05;151439.34;;;10.57;96.73
44926;BME280;30662;51.210;7.656;2023-05-20T02:55:35;151455.81;;;10.63;95.69
44926;BME280;30662;51.210;7.656;2023-05-20T02:58:01;151429.25;;;10.53;96.65
44926;BME280;30662;51.210;7.656;2023-05-20T03:00:28;151448.25;;;10.60;96.81
44926;BME280;30662;51.210;7.656;2023-05-20T03:02:56;151444.44;;;10.59;96.65
44926;BME280;30662;51.210;7.656;2023-05-20T03:05:23;151435.56;;;10.55;97.55
44926;BME280;30662;51.210;7.656;2023-05-20T03:07:49;151459.66;;;10.65;97.00
44926;BME280;30662;51.210;7.656;2023-05-20T03:10:15;151421.63;;;10.49;98.11
44926;BME280;30662;51.210;7.656;2023-05-20T03:12:41;151398.84;;;10.40;98.84
44926;BME280;30662;51.210;7.656;2023-05-20T03:15:08;151401.38;;;10.41;99.93
44926;BME280;30662;51.210;7.656;2023-05-20T03:17:34;151392.53;;;10.38;100.00
44926;BME280;30662;51.210;7.656;2023-05-20T03:20:00;151407.75;;;10.44;99.51
44926;BME280;30662;51.210;7.656;2023-05-20T03:22:26;151387.50;;;10.36;100.00
44926;BME280;30662;51.210;7.656;2023-05-20T03:24:52;151401.38;;;10.41;100.00
44926;BME280;30662;51.210;7.656;2023-05-20T03:27:18;151407.75;;;10.44;100.00
44926;BME280;30662;51.210;7.656;2023-05-20T03:29:44;151379.88;;;10.33;100.00
44926;BME280;30662;51.210;7.656;2023-05-20T03:32:10;151374.81;;;10.31;100.00
44926;BME280;30662;51.210;7.656;2023-05-20T03:34:36;151398.84;;;10.40;100.00
44926;BME280;30662;51.210;7.656;2023-05-20T03:37:02;151396.34;;;10.39;100.00
44926;BME280;30662;51.210;7.656;2023-05-20T03:39:28;151400.13;;;10.41;100.00
44926;BME280;30662;51.210;7.656;2023-05-20T03:41:54;151392.53;;;10.38;100.00
44926;BME280;30662;51.210;7.656;2023-05-20T03:44:20;151371.03;;;10.29;100.00
44926;BME280;30662;51.210;7.656;2023-05-20T03:46:46;151373.56;;;10.30;100.00
44926;BME280;30662;51.210;7.656;2023-05-20T03:49:12;151352.00;;;10.21;100.00
44926;BME280;30662;51.210;7.656;2023-05-20T03:51:38;151371.03;;;10.29;100.00
44926;BME280;30662;51.210;7.656;2023-05-20T03:54:05;151377.34;;;10.32;100.00
44926;BME280;30662;51.210;7.656;2023-05-20T03:56:31;151354.56;;;10.23;100.00
44926;BME280;30662;51.210;7.656;2023-05-20T03:58:57;151327.94;;;10.12;100.00
44926;BME280;30662;51.210;7.656;2023-05-20T04:01:24;151349.44;;;10.20;100.00
44926;BME280;30662;51.210;7.656;2023-05-20T04:03:50;151326.66;;;10.11;100.00
44926;BME280;30662;51.210;7.656;2023-05-20T04:06:16;151338.06;;;10.16;100.00
44926;BME280;30662;51.210;7.656;2023-05-20T04:08:42;151332.97;;;10.14;100.00
44926;BME280;30662;51.210;7.656;2023-05-20T04:11:08;151373.56;;;10.30;100.00
44926;BME280;30662;51.210;7.656;2023-05-20T04:13:34;151365.94;;;10.27;100.00
44926;BME280;30662;51.210;7.656;2023-05-20T04:16:00;151340.59;;;10.17;100.00
44926;BME280;30662;51.210;7.656;2023-05-20T04:18:27;151307.69;;;10.04;100.00
44926;BME280;30662;51.210;7.656;2023-05-20T04:20:56;151360.88;;;10.25;100.00
44926;BME280;30662;51.210;7.656;2023-05-20T04:23:22;151331.72;;;10.13;100.00
44926;BME280;30662;51.210;7.656;2023-05-20T04:25:49;151349.44;;;10.20;100.00
44926;BME280;30662;51.210;7.656;2023-05-20T04:28:15;151378.59;;;10.32;100.00
44926;BME280;30662;51.210;7.656;2023-05-20T04:30:41;151379.88;;;10.33;100.00
44926;BME280;30662;51.210;7.656;2023-05-20T04:33:10;151425.47;;;10.51;100.00
44926;BME280;30662;51.210;7.656;2023-05-20T04:35:36;151444.44;;;10.59;100.00
44926;BME280;30662;51.210;7.656;2023-05-20T04:38:06;151426.72;;;10.52;100.00
44926;BME280;30662;51.210;7.656;2023-05-20T04:40:33;151407.75;;;10.44;100.00
44926;BME280;30662;51.210;7.656;2023-05-20T04:42:59;151431.78;;;10.54;100.00
44926;BME280;30662;51.210;7.656;2023-05-20T04:45:25;151473.53;;;10.70;100.00
44926;BME280;30662;51.210;7.656;2023-05-20T04:47:51;151474.81;;;10.71;100.00
44926;BME280;30662;51.210;7.656;2023-05-20T04:50:18;151491.25;;;10.77;100.00
44926;BME280;30662;51.210;7.656;2023-05-20T04:52:44;151479.91;;;10.73;100.00
44926;BME280;30662;51.210;7.656;2023-05-20T04:55:11;151449.50;;;10.61;100.00
44926;BME280;30662;51.210;7.656;2023-05-20T04:57:38;151471.00;;;10.69;100.00
44926;BME280;30662;51.210;7.656;2023-05-20T05:00:11;151490.00;;;10.77;100.00
44926;BME280;30662;51.210;7.656;2023-05-20T05:02:38;151517.88;;;10.88;100.00
44926;BME280;30662;51.210;7.656;2023-05-20T05:05:04;151529.25;;;10.93;100.00
44926;BME280;30662;51.210;7.656;2023-05-20T05:07:30;151517.88;;;10.88;100.00
44926;BME280;30662;51.210;7.656;2023-05-20T05:09:56;151524.19;;;10.91;100.00
44926;BME280;30662;51.210;7.656;2023-05-20T05:12:22;151534.34;;;10.95;100.00
44926;BME280;30662;51.210;7.656;2023-05-20T05:14:48;151496.38;;;10.80;100.00
44926;BME280;30662;51.210;7.656;2023-05-20T05:17:14;151511.50;;;10.86;100.00
44926;BME280;30662;51.210;7.656;2023-05-20T05:19:40;151526.72;;;10.92;100.00
44926;BME280;30662;51.210;7.656;2023-05-20T05:22:06;151476.06;;;10.71;100.00
44926;BME280;30662;51.210;7.656;2023-05-20T05:24:32;151509.00;;;10.85;100.00
44926;BME280;30662;51.210;7.656;2023-05-20T05:26:58;151569.81;;;11.09;100.00
44926;BME280;30662;51.210;7.656;2023-05-20T05:29:24;151552.06;;;11.02;99.63
44926;BME280;30662;51.210;7.656;2023-05-20T05:31:50;151576.13;;;11.12;99.70
44926;BME280;30662;51.210;7.656;2023-05-20T05:34:16;151564.69;;;11.07;99.72
44926;BME280;30662;51.210;7.656;2023-05-20T05:36:42;151538.13;;;10.96;100.00
44926;BME280;30662;51.210;7.656;2023-05-20T05:39:07;151538.13;;;10.96;100.00
44926;BME280;30662;51.210;7.656;2023-05-20T05:41:34;151560.91;;;11.05;100.00
44926;BME280;30662;51.210;7.656;2023-05-20T05:44:00;151587.53;;;11.16;99.67
44926;BME280;30662;51.210;7.656;2023-05-20T05:46:26;151581.16;;;11.14;99.95
44926;BME280;30662;51.210;7.656;2023-05-20T05:48:52;151593.84;;;11.19;100.00
44926;BME280;30662;51.210;7.656;2023-05-20T05:51:18;151650.84;;;11.42;99.83
44926;BME280;30662;51.210;7.656;2023-05-20T05:53:44;151620.44;;;11.29;99.07
44926;BME280;30662;51.210;7.656;2023-05-20T05:56:10;151633.09;;;11.35;99.51
44926;BME280;30662;51.210;7.656;2023-05-20T05:58:37;151650.84;;;11.42;99.49
44926;BME280;30662;51.210;7.656;2023-05-20T06:01:03;151654.63;;;11.43;99.45
44926;BME280;30662;51.210;7.656;2023-05-20T06:03:29;151635.63;;;11.36;99.81
44926;BME280;30662;51.210;7.656;2023-05-20T06:05:56;151631.84;;;11.34;99.77
44926;BME280;30662;51.210;7.656;2023-05-20T06:08:22;151687.56;;;11.56;99.72
44926;BME280;30662;51.210;7.656;2023-05-20T06:10:48;151705.31;;;11.64;99.34
44926;BME280;30662;51.210;7.656;2023-05-20T06:13:15;151681.25;;;11.54;100.00
44926;BME280;30662;51.210;7.656;2023-05-20T06:15:41;151661.00;;;11.46;100.00
44926;BME280;30662;51.210;7.656;2023-05-20T06:18:07;151623.00;;;11.30;100.00
44926;BME280;30662;51.210;7.656;2023-05-20T06:20:33;151662.25;;;11.46;100.00
44926;BME280;30662;51.210;7.656;2023-05-20T06:22:59;151682.53;;;11.54;100.00
44926;BME280;30662;51.210;7.656;2023-05-20T06:25:26;151740.78;;;11.78;99.84
44926;BME280;30662;51.210;7.656;2023-05-20T06:27:52;151744.56;;;11.79;99.53
44926;BME280;30662;51.210;7.656;2023-05-20T06:30:18;151699.00;;;11.61;100.00
44926;BME280;30662;51.210;7.656;2023-05-20T06:32:45;151700.25;;;11.62;100.00
44926;BME280;30662;51.210;7.656;2023-05-20T06:35:11;151754.78;;;11.83;99.50
44926;BME280;30662;51.210;7.656;2023-05-20T06:37:37;151770.00;;;11.90;99.80
44926;BME280;30662;51.210;7.656;2023-05-20T06:40:03;151813.06;;;12.07;98.72
44926;BME280;30662;51.210;7.656;2023-05-20T06:42:29;151804.22;;;12.03;99.69
44926;BME280;30662;51.210;7.656;2023-05-20T06:44:55;151782.63;;;11.95;99.43
44926;BME280;30662;51.210;7.656;2023-05-20T06:47:21;151780.09;;;11.94;100.00
44926;BME280;30662;51.210;7.656;2023-05-20T06:49:47;151859.97;;;12.26;99.00
44926;BME280;30662;51.210;7.656;2023-05-20T06:52:13;151895.47;;;12.40;97.70
44926;BME280;30662;51.210;7.656;2023-05-20T06:54:40;151879.00;;;12.33;98.89
44926;BME280;30662;51.210;7.656;2023-05-20T06:57:07;151915.75;;;12.48;97.07
44926;BME280;30662;51.210;7.656;2023-05-20T06:59:36;151889.09;;;12.37;97.75
44926;BME280;30662;51.210;7.656;2023-05-20T07:02:02;151913.22;;;12.47;97.35
44926;BME280;30662;51.210;7.656;2023-05-20T07:04:28;151952.50;;;12.63;97.06
44926;BME280;30662;51.210;7.656;2023-05-20T07:06:55;151965.19;;;12.68;96.63
44926;BME280;30662;51.210;7.656;2023-05-20T07:09:21;152050.13;;;13.02;94.33
44926;BME280;30662;51.210;7.656;2023-05-20T07:11:47;151998.13;;;12.81;95.87
44926;BME280;30662;51.210;7.656;2023-05-20T07:14:13;152009.56;;;12.86;95.69
44926;BME280;30662;51.210;7.656;2023-05-20T07:16:39;151991.81;;;12.79;96.59
44926;BME280;30662;51.210;7.656;2023-05-20T07:19:06;151993.06;;;12.79;96.83
44926;BME280;30662;51.210;7.656;2023-05-20T07:21:32;151962.63;;;12.67;97.18
44926;BME280;30662;51.210;7.656;2023-05-20T07:23:58;152021.00;;;12.90;96.19
44926;BME280;30662;51.210;7.656;2023-05-20T07:26:24;152033.63;;;12.95;95.54
44926;BME280;30662;51.210;7.656;2023-05-20T07:28:50;152079.31;;;13.14;94.52
44926;BME280;30662;51.210;7.656;2023-05-20T07:31:16;152080.56;;;13.14;94.63
44926;BME280;30662;51.210;7.656;2023-05-20T07:33:42;152099.66;;;13.22;95.43
44926;BME280;30662;51.210;7.656;2023-05-20T07:36:08;152113.63;;;13.28;94.27
44926;BME280;30662;51.210;7.656;2023-05-20T07:38:36;152132.63;;;13.35;92.87
44926;BME280;30662;51.210;7.656;2023-05-20T07:41:04;152150.41;;;13.42;93.54
44926;BME280;30662;51.210;7.656;2023-05-20T07:43:31;152150.41;;;13.42;93.54
44926;BME280;30662;51.210;7.656;2023-05-20T07:45:57;152198.63;;;13.62;93.45
44926;BME280;30662;51.210;7.656;2023-05-20T07:48:26;152196.03;;;13.61;91.93
44926;BME280;30662;51.210;7.656;2023-05-20T07:50:52;152184.66;;;13.56;93.31
44926;BME280;30662;51.210;7.656;2023-05-20T07:53:18;152197.31;;;13.61;92.89
44926;BME280;30662;51.210;7.656;2023-05-20T07:55:44;152234.09;;;13.76;91.29
44926;BME280;30662;51.210;7.656;2023-05-20T07:58:10;152284.84;;;13.96;90.94
44926;BME280;30662;51.210;7.656;2023-05-20T08:00:36;152312.78;;;14.07;89.55
44926;BME280;30662;51.210;7.656;2023-05-20T08:03:02;152289.97;;;13.98;89.80
44926;BME280;30662;51.210;7.656;2023-05-20T08:05:28;152284.84;;;13.96;90.65
44926;BME280;30662;51.210;7.656;2023-05-20T08:07:54;152314.06;;;14.08;89.85
44926;BME280;30662;51.210;7.656;2023-05-20T08:10:21;152264.56;;;13.88;90.51
44926;BME280;30662;51.210;7.656;2023-05-20T08:12:46;152260.75;;;13.87;91.60
44926;BME280;30662;51.210;7.656;2023-05-20T08:15:12;152269.63;;;13.90;90.52
44926;BME280;30662;51.210;7.656;2023-05-20T08:17:38;152234.09;;;13.76;91.72
44926;BME280;30662;51.210;7.656;2023-05-20T08:20:05;152268.34;;;13.90;90.49
44926;BME280;30662;51.210;7.656;2023-05-20T08:22:32;152262.03;;;13.87;91.45
44926;BME280;30662;51.210;7.656;2023-05-20T08:24:58;152302.63;;;14.03;90.26
44926;BME280;30662;51.210;7.656;2023-05-20T08:27:24;152284.84;;;13.96;91.01
44926;BME280;30662;51.210;7.656;2023-05-20T08:29:50;152286.13;;;13.97;90.32
44926;BME280;30662;51.210;7.656;2023-05-20T08:32:16;152284.84;;;13.96;90.20
44926;BME280;30662;51.210;7.656;2023-05-20T08:34:42;152243.00;;;13.79;91.46
44926;BME280;30662;51.210;7.656;2023-05-20T08:37:08;152236.66;;;13.77;92.89
44926;BME280;30662;51.210;7.656;2023-05-20T08:39:34;152284.84;;;13.96;91.63
44926;BME280;30662;51.210;7.656;2023-05-20T08:42:00;152283.59;;;13.96;92.61
44926;BME280;30662;51.210;7.656;2023-05-20T08:44:28;152309.00;;;14.06;90.64
44926;BME280;30662;51.210;7.656;2023-05-20T08:46:55;152253.16;;;13.84;92.39
44926;BME280;30662;51.210;7.656;2023-05-20T08:49:21;152269.63;;;13.90;92.33
44926;BME280;30662;51.210;7.656;2023-05-20T08:51:48;152305.16;;;14.04;91.55
44926;BME280;30662;51.210;7.656;2023-05-20T08:54:14;152270.94;;;13.91;91.85
44926;BME280;30662;51.210;7.656;2023-05-20T08:56:42;152239.19;;;13.78;93.21
44926;BME280;30662;51.210;7.656;2023-05-20T08:59:08;152231.56;;;13.75;93.56
44926;BME280;30662;51.210;7.656;2023-05-20T09:01:41;152250.59;;;13.83;93.91
44926;BME280;30662;51.210;7.656;2023-05-20T09:04:10;152243.00;;;13.79;94.54
44926;BME280;30662;51.210;7.656;2023-05-20T09:06:43;152255.69;;;13.85;93.85
44926;BME280;30662;51.210;7.656;2023-05-20T09:09:13;152281.06;;;13.95;93.91
44926;BME280;30662;51.210;7.656;2023-05-20T09:11:40;152312.78;;;14.07;93.27
44926;BME280;30662;51.210;7.656;2023-05-20T09:14:06;152328.03;;;14.14;93.01
44926;BME280;30662;51.210;7.656;2023-05-20T09:16:33;152307.75;;;14.05;94.29
44926;BME280;30662;51.210;7.656;2023-05-20T09:18:59;152307.75;;;14.05;93.89
44926;BME280;30662;51.210;7.656;2023-05-20T09:21:26;152303.88;;;14.04;93.64
44926;BME280;30662;51.210;7.656;2023-05-20T09:23:53;152296.28;;;14.01;94.91
44926;BME280;30662;51.210;7.656;2023-05-20T09:26:22;152353.41;;;14.24;93.46
44926;BME280;30662;51.210;7.656;2023-05-20T09:28:49;152329.31;;;14.14;92.90
44926;BME280;30662;51.210;7.656;2023-05-20T09:31:16;152330.56;;;14.15;94.26
44926;BME280;30662;51.210;7.656;2023-05-20T09:33:42;152339.44;;;14.18;93.66
44926;BME280;30662;51.210;7.656;2023-05-20T09:36:09;152269.63;;;13.90;95.07
44926;BME280;30662;51.210;7.656;2023-05-20T09:38:39;152336.91;;;14.17;94.03
44926;BME280;30662;51.210;7.656;2023-05-20T09:41:10;152344.53;;;14.20;93.95
44926;BME280;30662;51.210;7.656;2023-05-20T09:43:38;152368.63;;;14.30;93.65
44926;BME280;30662;51.210;7.656;2023-05-20T09:46:04;152368.63;;;14.30;93.58
44926;BME280;30662;51.210;7.656;2023-05-20T09:48:32;152388.94;;;14.38;93.13
44926;BME280;30662;51.210;7.656;2023-05-20T09:51:00;152468.94;;;14.70;92.56
44926;BME280;30662;51.210;7.656;2023-05-20T09:53:27;152446.09;;;14.61;92.00
44926;BME280;30662;51.210;7.656;2023-05-20T09:55:53;152493.09;;;14.80;90.18
44926;BME280;30662;51.210;7.656;2023-05-20T09:58:19;152508.34;;;14.86;90.70
44926;BME280;30662;51.210;7.656;2023-05-20T10:00:47;152540.06;;;14.99;90.35
44926;BME280;30662;51.210;7.656;2023-05-20T10:03:13;152615.03;;;15.29;88.52
44926;BME280;30662;51.210;7.656;2023-05-20T10:05:44;152679.78;;;15.55;87.98
44926;BME280;30662;51.210;7.656;2023-05-20T10:11:21;152622.63;;;15.32;88.30
44926;BME280;30662;51.210;7.656;2023-05-20T10:17:01;152695.03;;;15.61;86.18
44926;BME280;30662;51.210;7.656;2023-05-20T10:19:33;152742.13;;;15.80;84.58
44926;BME280;30662;51.210;7.656;2023-05-20T10:22:07;152836.13;;;16.17;83.08
44926;BME280;30662;51.210;7.656;2023-05-20T10:24:43;152914.91;;;16.49;80.08
44926;BME280;30662;51.210;7.656;2023-05-20T10:27:12;152837.41;;;16.18;81.95
44926;BME280;30662;51.210;7.656;2023-05-20T10:29:48;152913.66;;;16.48;80.88
44926;BME280;30662;51.210;7.656;2023-05-20T10:32:27;152925.09;;;16.53;80.25
44926;BME280;30662;51.210;7.656;2023-05-20T10:35:03;153020.50;;;16.91;77.82
44926;BME280;30662;51.210;7.656;2023-05-20T10:37:32;153024.31;;;16.93;78.24
44926;BME280;30662;51.210;7.656;2023-05-20T10:42:31;152987.44;;;16.78;79.61
44926;BME280;30662;51.210;7.656;2023-05-20T10:44:57;152927.66;;;16.54;81.58
44926;BME280;30662;51.210;7.656;2023-05-20T10:47:24;152884.41;;;16.37;81.71
44926;BME280;30662;51.210;7.656;2023-05-20T10:49:51;152825.94;;;16.13;82.80
44926;BME280;30662;51.210;7.656;2023-05-20T10:52:18;152838.66;;;16.18;82.45
44926;BME280;30662;51.210;7.656;2023-05-20T10:54:58;152766.22;;;15.89;83.22
44926;BME280;30662;51.210;7.656;2023-05-20T10:57:28;152763.69;;;15.88;84.88
44926;BME280;30662;51.210;7.656;2023-05-20T10:59:54;152782.75;;;15.96;82.73
44926;BME280;30662;51.210;7.656;2023-05-20T11:02:21;152770.03;;;15.91;82.88
44926;BME280;30662;51.210;7.656;2023-05-20T11:04:57;152798.00;;;16.02;83.58
44926;BME280;30662;51.210;7.656;2023-05-20T11:07:27;152815.81;;;16.09;82.54
44926;BME280;30662;51.210;7.656;2023-05-20T11:09:54;152902.19;;;16.44;80.94
44926;BME280;30662;51.210;7.656;2023-05-20T11:12:25;152987.44;;;16.78;78.62
44926;BME280;30662;51.210;7.656;2023-05-20T11:14:51;152997.63;;;16.82;77.58
44926;BME280;30662;51.210;7.656;2023-05-20T11:17:18;152978.56;;;16.74;77.36
44926;BME280;30662;51.210;7.656;2023-05-20T11:19:45;153002.69;;;16.84;77.63
44926;BME280;30662;51.210;7.656;2023-05-20T11:22:12;152954.31;;;16.65;78.88
44926;BME280;30662;51.210;7.656;2023-05-20T11:24:38;152892.06;;;16.40;79.10
44926;BME280;30662;51.210;7.656;2023-05-20T11:27:05;152917.47;;;16.50;79.63
44926;BME280;30662;51.210;7.656;2023-05-20T11:29:31;152987.44;;;16.78;78.52
44926;BME280;30662;51.210;7.656;2023-05-20T11:31:58;153002.69;;;16.84;79.33
44926;BME280;30662;51.210;7.656;2023-05-20T11:34:25;153042.09;;;17.00;76.39
44926;BME280;30662;51.210;7.656;2023-05-20T11:36:58;152974.72;;;16.73;78.05
44926;BME280;30662;51.210;7.656;2023-05-20T11:39:24;152961.97;;;16.68;76.61
44926;BME280;30662;51.210;7.656;2023-05-20T11:41:54;152937.78;;;16.58;77.77
44926;BME280;30662;51.210;7.656;2023-05-20T11:44:20;152930.19;;;16.55;78.22
44926;BME280;30662;51.210;7.656;2023-05-20T11:46:47;152899.66;;;16.43;78.40
44926;BME280;30662;51.210;7.656;2023-05-20T11:49:14;152862.81;;;16.28;80.33
44926;BME280;30662;51.210;7.656;2023-05-20T11:51:41;152806.88;;;16.06;80.75
44926;BME280;30662;51.210;7.656;2023-05-20T11:54:08;152753.50;;;15.84;82.50
44926;BME280;30662;51.210;7.656;2023-05-20T11:56:36;152687.44;;;15.58;82.82
44926;BME280;30662;51.210;7.656;2023-05-20T11:59:04;152675.97;;;15.53;83.88
44926;BME280;30662;51.210;7.656;2023-05-20T12:01:39;152687.44;;;15.58;84.31
44926;BME280;30662;51.210;7.656;2023-05-20T12:04:06;152740.84;;;15.79;84.21
44926;BME280;30662;51.210;7.656;2023-05-20T12:06:33;152744.66;;;15.81;83.51
44926;BME280;30662;51.210;7.656;2023-05-20T12:09:03;152794.16;;;16.00;81.90
44926;BME280;30662;51.210;7.656;2023-05-20T12:11:33;152698.88;;;15.62;83.26
44926;BME280;30662;51.210;7.656;2023-05-20T12:14:01;152683.59;;;15.56;85.17
44926;BME280;30662;51.210;7.656;2023-05-20T12:16:27;152754.78;;;15.85;82.34
44926;BME280;30662;51.210;7.656;2023-05-20T12:18:54;152799.28;;;16.03;81.67
44926;BME280;30662;51.210;7.656;2023-05-20T12:21:20;152831.06;;;16.15;80.67
44926;BME280;30662;51.210;7.656;2023-05-20T12:23:46;152885.72;;;16.37;80.30
44926;BME280;30662;51.210;7.656;2023-05-20T12:26:12;152925.09;;;16.53;78.16
44926;BME280;30662;51.210;7.656;2023-05-20T12:28:38;152992.50;;;16.80;76.48
44926;BME280;30662;51.210;7.656;2023-05-20T12:31:04;152963.25;;;16.68;77.52
44926;BME280;30662;51.210;7.656;2023-05-20T12:33:31;153026.84;;;16.94;76.92
44926;BME280;30662;51.210;7.656;2023-05-20T12:35:57;153081.53;;;17.16;75.17
44926;BME280;30662;51.210;7.656;2023-05-20T12:38:23;153119.66;;;17.31;75.18
44926;BME280;30662;51.210;7.656;2023-05-20T12:40:49;153108.25;;;17.26;73.55
44926;BME280;30662;51.210;7.656;2023-05-20T12:43:15;153064.97;;;17.09;74.88
44926;BME280;30662;51.210;7.656;2023-05-20T12:45:42;153024.31;;;16.93;75.56
44926;BME280;30662;51.210;7.656;2023-05-20T12:48:08;153071.38;;;17.12;74.06
44926;BME280;30662;51.210;7.656;2023-05-20T12:50:35;153051.03;;;17.03;76.01
44926;BME280;30662;51.210;7.656;2023-05-20T12:53:01;153101.91;;;17.24;74.84
44926;BME280;30662;51.210;7.656;2023-05-20T12:55:27;153143.88;;;17.41;75.93